sensor_id;sensor_type;location;lat;lon;timestamp;temperature;humidity
30973;DHT22;25423;45.624;13.790;2022-08-19T00:02:41;24.10;99.90
30973;DHT22;25423;45.624;13.790;2022-08-19T00:05:07;24.00;99.90
30973;DHT22;25423;45.624;13.790;2022-08-19T00:07:33;24.10;99.90
30973;DHT22;25423;45.624;13.790;2022-08-19T00:09:59;24.20;99.90
30973;DHT22;25423;45.624;13.790;2022-08-19T00:12:24;24.30;99.90
30973;DHT22;25423;45.624;13.790;2022-08-19T00:14:50;24.30;99.90
30973;DHT22;25423;45.624;13.790;2022-08-19T00:17:16;24.30;99.90
30973;DHT22;25423;45.624;13.790;2022-08-19T00:19:41;24.30;99.90
30973;DHT22;25423;45.624;13.790;2022-08-19T00:22:07;24.10;99.90
30973;DHT22;25423;45.624;13.790;2022-08-19T00:24:34;24.00;99.90
30973;DHT22;25423;45.624;13.790;2022-08-19T00:27:00;23.90;99.90
30973;DHT22;25423;45.624;13.790;2022-08-19T00:29:27;24.00;99.90
30973;DHT22;25423;45.624;13.790;2022-08-19T00:31:53;24.30;99.90
30973;DHT22;25423;45.624;13.790;2022-08-19T00:34:20;24.40;99.90
30973;DHT22;25423;45.624;13.790;2022-08-19T00:36:47;24.50;99.90
30973;DHT22;25423;45.624;13.790;2022-08-19T00:39:13;24.40;99.90
30973;DHT22;25423;45.624;13.790;2022-08-19T00:41:39;24.40;99.90
30973;DHT22;25423;45.624;13.790;2022-08-19T00:46:41;24.60;99.90
30973;DHT22;25423;45.624;13.790;2022-08-19T00:51:40;24.40;99.90
30973;DHT22;25423;45.624;13.790;2022-08-19T00:54:06;24.50;99.90
30973;DHT22;25423;45.624;13.790;2022-08-19T00:56:32;24.50;99.90
30973;DHT22;25423;45.624;13.790;2022-08-19T00:58:58;24.60;99.90
30973;DHT22;25423;45.624;13.790;2022-08-19T01:01:24;24.60;99.90
30973;DHT22;25423;45.624;13.790;2022-08-19T01:03:50;24.70;99.90
30973;DHT22;25423;45.624;13.790;2022-08-19T01:06:15;24.50;99.90
30973;DHT22;25423;45.624;13.790;2022-08-19T01:08:41;24.20;99.90
30973;DHT22;25423;45.624;13.790;2022-08-19T01:11:06;23.90;99.90
30973;DHT22;25423;45.624;13.790;2022-08-19T01:13:33;23.70;99.90
30973;DHT22;25423;45.624;13.790;2022-08-19T01:16:04;23.20;99.90
30973;DHT22;25423;45.624;13.790;2022-08-19T01:18:31;22.60;99.90
30973;DHT22;25423;45.624;13.790;2022-08-19T01:20:58;22.50;99.90
30973;DHT22;25423;45.624;13.790;2022-08-19T01:23:25;22.50;99.90
30973;DHT22;25423;45.624;13.790;2022-08-19T01:28:37;23.00;99.90
30973;DHT22;25423;45.624;13.790;2022-08-19T01:31:03;23.10;99.90
30973;DHT22;25423;45.624;13.790;2022-08-19T01:33:28;23.00;99.90
30973;DHT22;25423;45.624;13.790;2022-08-19T01:36:06;22.70;99.90
30973;DHT22;25423;45.624;13.790;2022-08-19T01:38:34;22.30;99.90
30973;DHT22;25423;45.624;13.790;2022-08-19T01:41:00;21.90;99.90
30973;DHT22;25423;45.624;13.790;2022-08-19T01:43:25;21.60;99.90
30973;DHT22;25423;45.624;13.790;2022-08-19T01:45:51;21.30;99.90
30973;DHT22;25423;45.624;13.790;2022-08-19T01:48:17;21.10;99.90
30973;DHT22;25423;45.624;13.790;2022-08-19T01:50:43;20.90;99.90
30973;DHT22;25423;45.624;13.790;2022-08-19T01:53:09;21.00;99.90
30973;DHT22;25423;45.624;13.790;2022-08-19T01:55:36;21.00;99.90
30973;DHT22;25423;45.624;13.790;2022-08-19T01:58:02;21.00;99.90
30973;DHT22;25423;45.624;13.790;2022-08-19T02:00:30;21.00;99.90
30973;DHT22;25423;45.624;13.790;2022-08-19T02:02:56;20.90;99.90
30973;DHT22;25423;45.624;13.790;2022-08-19T02:05:22;21.00;99.90
30973;DHT22;25423;45.624;13.790;2022-08-19T02:07:48;21.20;99.90
30973;DHT22;25423;45.624;13.790;2022-08-19T02:10:18;21.30;99.90
30973;DHT22;25423;45.624;13.790;2022-08-19T02:12:45;21.40;99.90
30973;DHT22;25423;45.624;13.790;2022-08-19T02:15:11;21.50;99.90
30973;DHT22;25423;45.624;13.790;2022-08-19T02:17:37;21.40;99.90
30973;DHT22;25423;45.624;13.790;2022-08-19T02:20:02;21.30;99.90
30973;DHT22;25423;45.624;13.790;2022-08-19T02:22:28;21.40;99.90
30973;DHT22;25423;45.624;13.790;2022-08-19T02:24:54;21.00;99.90
30973;DHT22;25423;45.624;13.790;2022-08-19T02:27:20;20.80;99.90
30973;DHT22;25423;45.624;13.790;2022-08-19T02:29:46;20.60;99.90
30973;DHT22;25423;45.624;13.790;2022-08-19T02:32:12;20.50;99.90
30973;DHT22;25423;45.624;13.790;2022-08-19T02:34:38;20.40;99.90
30973;DHT22;25423;45.624;13.790;2022-08-19T02:37:04;20.30;99.90
30973;DHT22;25423;45.624;13.790;2022-08-19T02:39:30;20.20;99.90
30973;DHT22;25423;45.624;13.790;2022-08-19T02:41:55;20.20;99.90
30973;DHT22;25423;45.624;13.790;2022-08-19T02:44:21;20.40;99.90
30973;DHT22;25423;45.624;13.790;2022-08-19T02:46:47;20.50;99.90
30973;DHT22;25423;45.624;13.790;2022-08-19T02:49:13;20.50;99.90
30973;DHT22;25423;45.624;13.790;2022-08-19T02:51:43;20.60;99.90
30973;DHT22;25423;45.624;13.790;2022-08-19T02:54:09;20.50;99.90
30973;DHT22;25423;45.624;13.790;2022-08-19T02:56:35;20.40;99.90
30973;DHT22;25423;45.624;13.790;2022-08-19T02:59:01;20.30;99.90
30973;DHT22;25423;45.624;13.790;2022-08-19T03:01:30;20.30;99.90
30973;DHT22;25423;45.624;13.790;2022-08-19T03:03:57;20.40;99.90
30973;DHT22;25423;45.624;13.790;2022-08-19T03:06:23;20.30;99.90
30973;DHT22;25423;45.624;13.790;2022-08-19T03:08:49;20.30;99.90
30973;DHT22;25423;45.624;13.790;2022-08-19T03:11:19;20.30;99.90
30973;DHT22;25423;45.624;13.790;2022-08-19T03:13:48;20.30;99.90
30973;DHT22;25423;45.624;13.790;2022-08-19T03:16:14;20.40;99.90
30973;DHT22;25423;45.624;13.790;2022-08-19T03:18:40;20.50;99.90
30973;DHT22;25423;45.624;13.790;2022-08-19T03:21:06;20.50;99.90
30973;DHT22;25423;45.624;13.790;2022-08-19T03:23:32;20.50;99.90
30973;DHT22;25423;45.624;13.790;2022-08-19T03:25:57;20.50;99.90
30973;DHT22;25423;45.624;13.790;2022-08-19T03:28:23;20.60;99.90
30973;DHT22;25423;45.624;13.790;2022-08-19T03:31:22;20.50;99.90
30973;DHT22;25423;45.624;13.790;2022-08-19T03:33:41;20.50;99.90
30973;DHT22;25423;45.624;13.790;2022-08-19T03:36:08;20.50;99.90
30973;DHT22;25423;45.624;13.790;2022-08-19T03:38:35;20.50;99.90
30973;DHT22;25423;45.624;13.790;2022-08-19T03:41:11;20.60;99.90
30973;DHT22;25423;45.624;13.790;2022-08-19T03:43:38;20.80;99.90
30973;DHT22;25423;45.624;13.790;2022-08-19T03:46:04;20.70;99.90
30973;DHT22;25423;45.624;13.790;2022-08-19T03:48:31;20.70;99.90
30973;DHT22;25423;45.624;13.790;2022-08-19T03:50:57;20.80;99.90
30973;DHT22;25423;45.624;13.790;2022-08-19T03:53:24;20.90;99.90
30973;DHT22;25423;45.624;13.790;2022-08-19T03:55:51;21.00;99.90
30973;DHT22;25423;45.624;13.790;2022-08-19T03:58:16;21.10;99.90
30973;DHT22;25423;45.624;13.790;2022-08-19T04:00:42;21.30;99.90
30973;DHT22;25423;45.624;13.790;2022-08-19T04:03:08;21.30;99.90
30973;DHT22;25423;45.624;13.790;2022-08-19T04:05:34;21.40;99.90
30973;DHT22;25423;45.624;13.790;2022-08-19T04:07:59;21.40;99.90
30973;DHT22;25423;45.624;13.790;2022-08-19T04:10:26;21.30;99.90
30973;DHT22;25423;45.624;13.790;2022-08-19T04:12:53;21.30;99.90
30973;DHT22;25423;45.624;13.790;2022-08-19T04:15:19;21.10;99.90
30973;DHT22;25423;45.624;13.790;2022-08-19T04:17:44;21.00;99.90
30973;DHT22;25423;45.624;13.790;2022-08-19T04:20:10;20.90;99.90
30973;DHT22;25423;45.624;13.790;2022-08-19T04:22:35;20.70;99.90
30973;DHT22;25423;45.624;13.790;2022-08-19T04:25:01;20.60;99.90
30973;DHT22;25423;45.624;13.790;2022-08-19T04:27:27;20.40;99.90
30973;DHT22;25423;45.624;13.790;2022-08-19T04:29:52;20.40;99.90
30973;DHT22;25423;45.624;13.790;2022-08-19T04:32:18;20.50;99.90
30973;DHT22;25423;45.624;13.790;2022-08-19T04:34:44;20.50;99.90
30973;DHT22;25423;45.624;13.790;2022-08-19T04:37:10;20.40;99.90
30973;DHT22;25423;45.624;13.790;2022-08-19T04:39:37;20.40;99.90
30973;DHT22;25423;45.624;13.790;2022-08-19T04:42:21;20.40;99.90
30973;DHT22;25423;45.624;13.790;2022-08-19T04:45:11;20.10;99.90
30973;DHT22;25423;45.624;13.790;2022-08-19T04:47:37;20.00;99.90
30973;DHT22;25423;45.624;13.790;2022-08-19T04:50:03;20.00;99.90
30973;DHT22;25423;45.624;13.790;2022-08-19T04:52:30;19.90;99.90
30973;DHT22;25423;45.624;13.790;2022-08-19T04:54:56;19.90;99.90
30973;DHT22;25423;45.624;13.790;2022-08-19T04:57:22;19.90;99.90
30973;DHT22;25423;45.624;13.790;2022-08-19T04:59:48;20.00;99.90
30973;DHT22;25423;45.624;13.790;2022-08-19T05:02:13;20.10;99.90
30973;DHT22;25423;45.624;13.790;2022-08-19T05:04:39;20.20;99.90
30973;DHT22;25423;45.624;13.790;2022-08-19T05:07:05;20.10;99.90
30973;DHT22;25423;45.624;13.790;2022-08-19T05:09:30;20.30;99.90
30973;DHT22;25423;45.624;13.790;2022-08-19T05:11:56;20.30;99.90
30973;DHT22;25423;45.624;13.790;2022-08-19T05:14:22;20.40;99.90
30973;DHT22;25423;45.624;13.790;2022-08-19T05:16:48;20.50;99.90
30973;DHT22;25423;45.624;13.790;2022-08-19T05:19:13;20.50;99.90
30973;DHT22;25423;45.624;13.790;2022-08-19T05:21:58;20.50;99.90
30973;DHT22;25423;45.624;13.790;2022-08-19T05:24:42;20.50;99.90
30973;DHT22;25423;45.624;13.790;2022-08-19T05:27:08;20.60;99.90
30973;DHT22;25423;45.624;13.790;2022-08-19T05:29:34;20.60;99.90
30973;DHT22;25423;45.624;13.790;2022-08-19T05:32:00;20.70;99.90
30973;DHT22;25423;45.624;13.790;2022-08-19T05:34:25;20.70;99.90
30973;DHT22;25423;45.624;13.790;2022-08-19T05:36:56;20.90;99.90
30973;DHT22;25423;45.624;13.790;2022-08-19T05:39:23;21.00;99.90
30973;DHT22;25423;45.624;13.790;2022-08-19T05:41:53;21.20;99.90
30973;DHT22;25423;45.624;13.790;2022-08-19T05:44:19;21.30;99.90
30973;DHT22;25423;45.624;13.790;2022-08-19T05:46:46;21.50;99.90
30973;DHT22;25423;45.624;13.790;2022-08-19T05:49:12;21.50;99.90
30973;DHT22;25423;45.624;13.790;2022-08-19T05:51:38;21.50;99.90
30973;DHT22;25423;45.624;13.790;2022-08-19T05:54:05;21.50;99.90
30973;DHT22;25423;45.624;13.790;2022-08-19T05:56:31;21.50;99.90
30973;DHT22;25423;45.624;13.790;2022-08-19T05:58:57;21.60;99.90
30973;DHT22;25423;45.624;13.790;2022-08-19T06:01:24;21.60;99.90
30973;DHT22;25423;45.624;13.790;2022-08-19T06:03:49;21.70;99.90
30973;DHT22;25423;45.624;13.790;2022-08-19T06:06:16;21.80;99.90
30973;DHT22;25423;45.624;13.790;2022-08-19T06:08:42;22.00;99.90
30973;DHT22;25423;45.624;13.790;2022-08-19T06:11:31;22.10;99.90
30973;DHT22;25423;45.624;13.790;2022-08-19T06:14:00;22.30;99.90
30973;DHT22;25423;45.624;13.790;2022-08-19T06:16:26;22.50;99.90
30973;DHT22;25423;45.624;13.790;2022-08-19T06:18:53;22.50;99.90
30973;DHT22;25423;45.624;13.790;2022-08-19T06:21:23;22.50;99.90
30973;DHT22;25423;45.624;13.790;2022-08-19T06:23:49;22.40;99.90
30973;DHT22;25423;45.624;13.790;2022-08-19T06:26:18;22.30;99.90
30973;DHT22;25423;45.624;13.790;2022-08-19T06:28:44;22.50;99.90
30973;DHT22;25423;45.624;13.790;2022-08-19T06:31:15;22.60;99.90
30973;DHT22;25423;45.624;13.790;2022-08-19T06:33:42;22.70;99.90
30973;DHT22;25423;45.624;13.790;2022-08-19T06:36:16;22.80;99.90
30973;DHT22;25423;45.624;13.790;2022-08-19T06:38:41;23.00;99.90
30973;DHT22;25423;45.624;13.790;2022-08-19T06:41:07;23.00;99.90
30973;DHT22;25423;45.624;13.790;2022-08-19T06:43:33;23.10;99.90
30973;DHT22;25423;45.624;13.790;2022-08-19T06:45:59;23.10;99.90
30973;DHT22;25423;45.624;13.790;2022-08-19T06:48:26;23.30;99.90
30973;DHT22;25423;45.624;13.790;2022-08-19T06:50:51;23.40;99.90
30973;DHT22;25423;45.624;13.790;2022-08-19T06:53:17;23.50;99.90
30973;DHT22;25423;45.624;13.790;2022-08-19T06:55:44;23.60;99.90
30973;DHT22;25423;45.624;13.790;2022-08-19T06:58:10;23.80;99.90
30973;DHT22;25423;45.624;13.790;2022-08-19T07:00:36;23.90;99.90
30973;DHT22;25423;45.624;13.790;2022-08-19T07:03:02;24.00;99.90
30973;DHT22;25423;45.624;13.790;2022-08-19T07:05:27;24.20;99.90
30973;DHT22;25423;45.624;13.790;2022-08-19T07:07:53;24.40;99.90
30973;DHT22;25423;45.624;13.790;2022-08-19T07:10:18;24.70;99.90
30973;DHT22;25423;45.624;13.790;2022-08-19T07:12:44;24.90;99.90
30973;DHT22;25423;45.624;13.790;2022-08-19T07:15:10;25.00;99.90
30973;DHT22;25423;45.624;13.790;2022-08-19T07:17:36;25.20;99.90
30973;DHT22;25423;45.624;13.790;2022-08-19T07:20:05;25.10;99.90
30973;DHT22;25423;45.624;13.790;2022-08-19T07:22:35;25.10;99.90
30973;DHT22;25423;45.624;13.790;2022-08-19T07:25:01;25.20;99.90
30973;DHT22;25423;45.624;13.790;2022-08-19T07:27:29;25.30;99.90
30973;DHT22;25423;45.624;13.790;2022-08-19T07:29:54;25.40;99.90
30973;DHT22;25423;45.624;13.790;2022-08-19T07:32:20;25.50;99.90
30973;DHT22;25423;45.624;13.790;2022-08-19T07:34:45;25.50;99.90
30973;DHT22;25423;45.624;13.790;2022-08-19T07:37:11;25.60;99.90
30973;DHT22;25423;45.624;13.790;2022-08-19T07:39:37;25.70;99.90
30973;DHT22;25423;45.624;13.790;2022-08-19T07:42:05;25.60;99.90
30973;DHT22;25423;45.624;13.790;2022-08-19T07:44:32;25.50;99.90
30973;DHT22;25423;45.624;13.790;2022-08-19T07:46:59;25.40;99.90
30973;DHT22;25423;45.624;13.790;2022-08-19T07:49:25;25.40;99.90
30973;DHT22;25423;45.624;13.790;2022-08-19T07:52:01;25.70;99.90
30973;DHT22;25423;45.624;13.790;2022-08-19T07:54:29;25.90;99.90
30973;DHT22;25423;45.624;13.790;2022-08-19T07:56:54;26.10;99.90
30973;DHT22;25423;45.624;13.790;2022-08-19T07:59:20;26.20;99.90
30973;DHT22;25423;45.624;13.790;2022-08-19T08:01:46;26.20;99.90
30973;DHT22;25423;45.624;13.790;2022-08-19T08:04:12;26.10;99.90
30973;DHT22;25423;45.624;13.790;2022-08-19T08:06:58;26.10;99.90
30973;DHT22;25423;45.624;13.790;2022-08-19T08:09:42;26.10;99.90
30973;DHT22;25423;45.624;13.790;2022-08-19T08:14:44;26.30;99.90
30973;DHT22;25423;45.624;13.790;2022-08-19T08:17:11;26.40;99.90
30973;DHT22;25423;45.624;13.790;2022-08-19T08:19:37;26.50;99.90
30973;DHT22;25423;45.624;13.790;2022-08-19T08:22:04;26.30;99.90
30973;DHT22;25423;45.624;13.790;2022-08-19T08:24:31;26.30;99.90
30973;DHT22;25423;45.624;13.790;2022-08-19T08:26:58;26.20;99.90
30973;DHT22;25423;45.624;13.790;2022-08-19T08:29:24;26.20;99.90
30973;DHT22;25423;45.624;13.790;2022-08-19T08:31:51;26.40;99.90
30973;DHT22;25423;45.624;13.790;2022-08-19T08:34:16;26.70;99.90
30973;DHT22;25423;45.624;13.790;2022-08-19T08:36:43;26.90;99.90
30973;DHT22;25423;45.624;13.790;2022-08-19T08:39:13;27.20;99.90
30973;DHT22;25423;45.624;13.790;2022-08-19T08:42:00;27.10;99.90
30973;DHT22;25423;45.624;13.790;2022-08-19T08:47:03;27.00;99.90
30973;DHT22;25423;45.624;13.790;2022-08-19T08:52:04;27.30;99.90
30973;DHT22;25423;45.624;13.790;2022-08-19T08:54:32;27.60;99.90
30973;DHT22;25423;45.624;13.790;2022-08-19T08:56:59;28.00;99.90
30973;DHT22;25423;45.624;13.790;2022-08-19T08:59:33;28.40;99.90
30973;DHT22;25423;45.624;13.790;2022-08-19T09:01:59;28.60;99.90
30973;DHT22;25423;45.624;13.790;2022-08-19T09:04:25;28.80;99.90
30973;DHT22;25423;45.624;13.790;2022-08-19T09:07:06;28.80;99.90
30973;DHT22;25423;45.624;13.790;2022-08-19T09:09:42;28.80;99.90
30973;DHT22;25423;45.624;13.790;2022-08-19T09:12:23;28.50;99.90
30973;DHT22;25423;45.624;13.790;2022-08-19T09:17:21;28.30;99.90
30973;DHT22;25423;45.624;13.790;2022-08-19T09:22:19;28.50;99.90
30973;DHT22;25423;45.624;13.790;2022-08-19T09:24:50;28.60;99.90
30973;DHT22;25423;45.624;13.790;2022-08-19T09:27:20;28.80;99.90
30973;DHT22;25423;45.624;13.790;2022-08-19T09:29:46;29.00;99.90
30973;DHT22;25423;45.624;13.790;2022-08-19T09:32:13;29.10;99.90
30973;DHT22;25423;45.624;13.790;2022-08-19T09:34:39;29.10;99.90
30973;DHT22;25423;45.624;13.790;2022-08-19T09:37:05;29.10;99.90
30973;DHT22;25423;45.624;13.790;2022-08-19T09:39:30;29.20;99.90
30973;DHT22;25423;45.624;13.790;2022-08-19T09:41:56;29.10;99.90
30973;DHT22;25423;45.624;13.790;2022-08-19T09:44:22;29.00;99.90
30973;DHT22;25423;45.624;13.790;2022-08-19T09:46:47;29.00;99.90
30973;DHT22;25423;45.624;13.790;2022-08-19T09:49:13;29.10;99.90
30973;DHT22;25423;45.624;13.790;2022-08-19T09:51:38;29.30;99.90
30973;DHT22;25423;45.624;13.790;2022-08-19T09:54:04;29.60;99.90
30973;DHT22;25423;45.624;13.790;2022-08-19T09:56:30;29.80;99.90
30973;DHT22;25423;45.624;13.790;2022-08-19T09:58:57;29.70;99.90
30973;DHT22;25423;45.624;13.790;2022-08-19T10:01:24;29.60;99.90
30973;DHT22;25423;45.624;13.790;2022-08-19T10:03:51;29.60;99.90
30973;DHT22;25423;45.624;13.790;2022-08-19T10:06:18;29.60;99.90
30973;DHT22;25423;45.624;13.790;2022-08-19T10:08:45;29.50;99.90
30973;DHT22;25423;45.624;13.790;2022-08-19T10:11:10;29.30;99.90
30973;DHT22;25423;45.624;13.790;2022-08-19T10:13:36;29.00;99.90
30973;DHT22;25423;45.624;13.790;2022-08-19T10:16:06;28.80;99.90
30973;DHT22;25423;45.624;13.790;2022-08-19T10:18:33;28.60;99.90
30973;DHT22;25423;45.624;13.790;2022-08-19T10:21:06;28.50;99.90
30973;DHT22;25423;45.624;13.790;2022-08-19T10:23:34;28.40;99.90
30973;DHT22;25423;45.624;13.790;2022-08-19T10:26:00;28.30;99.90
30973;DHT22;25423;45.624;13.790;2022-08-19T10:28:25;28.10;99.90
30973;DHT22;25423;45.624;13.790;2022-08-19T10:30:51;27.90;99.90
30973;DHT22;25423;45.624;13.790;2022-08-19T10:33:17;27.70;99.90
30973;DHT22;25423;45.624;13.790;2022-08-19T10:35:42;27.30;99.90
30973;DHT22;25423;45.624;13.790;2022-08-19T10:38:08;26.60;99.90
30973;DHT22;25423;45.624;13.790;2022-08-19T10:40:33;25.80;99.90
30973;DHT22;25423;45.624;13.790;2022-08-19T10:43:00;24.90;99.90
30973;DHT22;25423;45.624;13.790;2022-08-19T10:45:25;24.40;99.90
30973;DHT22;25423;45.624;13.790;2022-08-19T10:47:52;24.10;99.90
30973;DHT22;25423;45.624;13.790;2022-08-19T10:50:18;23.80;99.90
30973;DHT22;25423;45.624;13.790;2022-08-19T10:53:03;23.50;99.90
30973;DHT22;25423;45.624;13.790;2022-08-19T10:55:29;23.40;99.90
30973;DHT22;25423;45.624;13.790;2022-08-19T10:58:15;23.40;99.90
30973;DHT22;25423;45.624;13.790;2022-08-19T11:00:41;23.50;99.90
30973;DHT22;25423;45.624;13.790;2022-08-19T11:03:08;23.60;99.90
30973;DHT22;25423;45.624;13.790;2022-08-19T11:05:33;23.60;99.90
30973;DHT22;25423;45.624;13.790;2022-08-19T11:07:59;23.80;99.90
30973;DHT22;25423;45.624;13.790;2022-08-19T11:10:25;24.20;99.90
30973;DHT22;25423;45.624;13.790;2022-08-19T11:12:50;24.40;99.90
30973;DHT22;25423;45.624;13.790;2022-08-19T11:15:19;24.70;99.90
30973;DHT22;25423;45.624;13.790;2022-08-19T11:17:45;25.00;99.90
30973;DHT22;25423;45.624;13.790;2022-08-19T11:20:11;25.20;99.90
30973;DHT22;25423;45.624;13.790;2022-08-19T11:22:37;25.10;99.90
30973;DHT22;25423;45.624;13.790;2022-08-19T11:25:03;25.10;99.90
30973;DHT22;25423;45.624;13.790;2022-08-19T11:27:29;25.00;99.90
30973;DHT22;25423;45.624;13.790;2022-08-19T11:29:54;25.10;99.90
30973;DHT22;25423;45.624;13.790;2022-08-19T11:32:20;25.30;99.90
30973;DHT22;25423;45.624;13.790;2022-08-19T11:34:45;25.60;99.90
30973;DHT22;25423;45.624;13.790;2022-08-19T11:37:11;25.90;99.90
30973;DHT22;25423;45.624;13.790;2022-08-19T11:39:37;26.30;99.90
30973;DHT22;25423;45.624;13.790;2022-08-19T11:42:04;26.70;99.90
30973;DHT22;25423;45.624;13.790;2022-08-19T11:44:50;27.00;99.90
30973;DHT22;25423;45.624;13.790;2022-08-19T11:47:15;27.00;99.90
30973;DHT22;25423;45.624;13.790;2022-08-19T11:49:41;26.80;99.90
30973;DHT22;25423;45.624;13.790;2022-08-19T11:52:07;26.90;99.90
30973;DHT22;25423;45.624;13.790;2022-08-19T11:54:33;27.00;99.90
30973;DHT22;25423;45.624;13.790;2022-08-19T11:56:58;27.00;99.90
30973;DHT22;25423;45.624;13.790;2022-08-19T11:59:26;27.10;99.90
30973;DHT22;25423;45.624;13.790;2022-08-19T12:01:52;27.20;99.90
30973;DHT22;25423;45.624;13.790;2022-08-19T12:04:18;27.40;99.90
30973;DHT22;25423;45.624;13.790;2022-08-19T12:06:43;27.60;99.90
30973;DHT22;25423;45.624;13.790;2022-08-19T12:09:09;27.90;99.90
30973;DHT22;25423;45.624;13.790;2022-08-19T12:11:35;28.00;99.90
30973;DHT22;25423;45.624;13.790;2022-08-19T12:14:02;28.20;99.90
30973;DHT22;25423;45.624;13.790;2022-08-19T12:16:29;28.70;99.90
30973;DHT22;25423;45.624;13.790;2022-08-19T12:18:55;29.00;99.90
30973;DHT22;25423;45.624;13.790;2022-08-19T12:21:25;29.10;99.90
30973;DHT22;25423;45.624;13.790;2022-08-19T12:23:52;29.00;99.90
30973;DHT22;25423;45.624;13.790;2022-08-19T12:26:18;28.90;99.90
30973;DHT22;25423;45.624;13.790;2022-08-19T12:28:44;29.00;99.90
30973;DHT22;25423;45.624;13.790;2022-08-19T12:31:10;28.80;99.90
30973;DHT22;25423;45.624;13.790;2022-08-19T12:33:37;28.70;99.90
30973;DHT22;25423;45.624;13.790;2022-08-19T12:36:04;28.40;99.90
30973;DHT22;25423;45.624;13.790;2022-08-19T12:38:30;28.20;99.90
30973;DHT22;25423;45.624;13.790;2022-08-19T12:40:57;28.10;99.90
30973;DHT22;25423;45.624;13.790;2022-08-19T12:43:23;28.00;99.90
30973;DHT22;25423;45.624;13.790;2022-08-19T12:45:49;28.00;99.90
30973;DHT22;25423;45.624;13.790;2022-08-19T12:48:14;27.90;99.90
30973;DHT22;25423;45.624;13.790;2022-08-19T12:50:40;27.90;99.90
30973;DHT22;25423;45.624;13.790;2022-08-19T12:53:07;27.80;99.90
30973;DHT22;25423;45.624;13.790;2022-08-19T12:55:32;27.90;99.90
30973;DHT22;25423;45.624;13.790;2022-08-19T12:57:58;27.90;99.90
30973;DHT22;25423;45.624;13.790;2022-08-19T13:00:25;28.00;99.90
30973;DHT22;25423;45.624;13.790;2022-08-19T13:02:52;28.00;99.90
30973;DHT22;25423;45.624;13.790;2022-08-19T13:05:24;28.10;99.90
30973;DHT22;25423;45.624;13.790;2022-08-19T13:07:51;28.00;99.90
30973;DHT22;25423;45.624;13.790;2022-08-19T13:10:18;28.10;99.90
30973;DHT22;25423;45.624;13.790;2022-08-19T13:12:45;28.20;99.90
30973;DHT22;25423;45.624;13.790;2022-08-19T13:15:12;28.20;99.90
30973;DHT22;25423;45.624;13.790;2022-08-19T13:17:38;28.40;99.90
30973;DHT22;25423;45.624;13.790;2022-08-19T13:20:04;28.30;99.90
30973;DHT22;25423;45.624;13.790;2022-08-19T13:22:32;28.30;99.90
30973;DHT22;25423;45.624;13.790;2022-08-19T13:24:58;28.20;99.90
30973;DHT22;25423;45.624;13.790;2022-08-19T13:27:23;28.20;99.90
30973;DHT22;25423;45.624;13.790;2022-08-19T13:29:49;28.30;99.90
30973;DHT22;25423;45.624;13.790;2022-08-19T13:32:33;28.40;99.90
30973;DHT22;25423;45.624;13.790;2022-08-19T13:35:18;28.40;99.90
30973;DHT22;25423;45.624;13.790;2022-08-19T13:37:43;28.40;99.90
30973;DHT22;25423;45.624;13.790;2022-08-19T13:40:12;28.30;99.90
30973;DHT22;25423;45.624;13.790;2022-08-19T13:42:41;28.40;99.90
30973;DHT22;25423;45.624;13.790;2022-08-19T13:45:07;28.50;99.90
30973;DHT22;25423;45.624;13.790;2022-08-19T13:47:33;28.40;99.90
30973;DHT22;25423;45.624;13.790;2022-08-19T13:50:08;28.40;99.90
30973;DHT22;25423;45.624;13.790;2022-08-19T13:52:36;28.10;99.90
30973;DHT22;25423;45.624;13.790;2022-08-19T13:55:01;27.70;99.90
30973;DHT22;25423;45.624;13.790;2022-08-19T13:57:27;27.50;99.90
30973;DHT22;25423;45.624;13.790;2022-08-19T13:59:52;27.50;99.90
30973;DHT22;25423;45.624;13.790;2022-08-19T14:02:18;27.20;99.90
30973;DHT22;25423;45.624;13.790;2022-08-19T14:04:44;27.00;99.90
30973;DHT22;25423;45.624;13.790;2022-08-19T14:07:09;26.90;99.90
30973;DHT22;25423;45.624;13.790;2022-08-19T14:09:35;26.70;99.90
30973;DHT22;25423;45.624;13.790;2022-08-19T14:12:01;26.60;99.90
30973;DHT22;25423;45.624;13.790;2022-08-19T14:14:26;26.40;99.90
30973;DHT22;25423;45.624;13.790;2022-08-19T14:16:52;26.50;99.90
30973;DHT22;25423;45.624;13.790;2022-08-19T14:19:17;26.50;99.90
30973;DHT22;25423;45.624;13.790;2022-08-19T14:21:44;26.70;99.90
30973;DHT22;25423;45.624;13.790;2022-08-19T14:24:10;26.90;99.90
30973;DHT22;25423;45.624;13.790;2022-08-19T14:26:36;26.80;99.90
30973;DHT22;25423;45.624;13.790;2022-08-19T14:29:01;26.60;99.90
30973;DHT22;25423;45.624;13.790;2022-08-19T14:31:27;26.30;99.90
30973;DHT22;25423;45.624;13.790;2022-08-19T14:33:52;26.20;99.90
30973;DHT22;25423;45.624;13.790;2022-08-19T14:36:19;26.00;99.90
30973;DHT22;25423;45.624;13.790;2022-08-19T14:38:46;26.10;99.90
30973;DHT22;25423;45.624;13.790;2022-08-19T14:41:19;26.30;99.90
30973;DHT22;25423;45.624;13.790;2022-08-19T14:43:46;26.30;99.90
30973;DHT22;25423;45.624;13.790;2022-08-19T14:46:15;26.30;99.90
30973;DHT22;25423;45.624;13.790;2022-08-19T14:48:41;26.40;99.90
30973;DHT22;25423;45.624;13.790;2022-08-19T14:51:07;26.40;99.90
30973;DHT22;25423;45.624;13.790;2022-08-19T14:53:33;26.30;99.90
30973;DHT22;25423;45.624;13.790;2022-08-19T14:55:59;26.30;99.90
30973;DHT22;25423;45.624;13.790;2022-08-19T14:58:26;26.20;99.90
30973;DHT22;25423;45.624;13.790;2022-08-19T15:00:52;26.20;99.90
30973;DHT22;25423;45.624;13.790;2022-08-19T15:03:18;26.20;99.90
30973;DHT22;25423;45.624;13.790;2022-08-19T15:05:43;26.10;99.90
30973;DHT22;25423;45.624;13.790;2022-08-19T15:08:09;25.90;99.90
30973;DHT22;25423;45.624;13.790;2022-08-19T15:10:35;25.80;99.90
30973;DHT22;25423;45.624;13.790;2022-08-19T15:13:02;25.90;99.90
30973;DHT22;25423;45.624;13.790;2022-08-19T15:15:28;25.80;99.90
30973;DHT22;25423;45.624;13.790;2022-08-19T15:17:54;25.80;99.90
30973;DHT22;25423;45.624;13.790;2022-08-19T15:20:21;25.60;99.90
30973;DHT22;25423;45.624;13.790;2022-08-19T15:22:48;25.60;99.90
30973;DHT22;25423;45.624;13.790;2022-08-19T15:25:14;25.80;99.90
30973;DHT22;25423;45.624;13.790;2022-08-19T15:27:40;25.60;99.90
30973;DHT22;25423;45.624;13.790;2022-08-19T15:30:06;25.70;99.90
30973;DHT22;25423;45.624;13.790;2022-08-19T15:32:33;25.60;99.90
30973;DHT22;25423;45.624;13.790;2022-08-19T15:35:00;25.70;99.90
30973;DHT22;25423;45.624;13.790;2022-08-19T15:37:27;25.60;99.90